sensor_id;sensor_type;location;lat;lon;timestamp;P1;durP1;ratioP1;P2;durP2;ratioP2
79438;SDS011;68889;48.232;10.110;2023-07-31T00:02:00;3.60;;;2.13;;
79438;SDS011;68889;48.232;10.110;2023-07-31T00:04:26;2.92;;;1.83;;
79438;SDS011;68889;48.232;10.110;2023-07-31T00:06:52;2.95;;;1.90;;
79438;SDS011;68889;48.232;10.110;2023-07-31T00:09:17;4.28;;;2.40;;
79438;SDS011;68889;48.232;10.110;2023-07-31T00:11:43;4.25;;;2.13;;
79438;SDS011;68889;48.232;10.110;2023-07-31T00:14:08;3.33;;;2.22;;
79438;SDS011;68889;48.232;10.110;2023-07-31T00:16:34;3.60;;;2.03;;
79438;SDS011;68889;48.232;10.110;2023-07-31T00:18:59;3.72;;;2.10;;
79438;SDS011;68889;48.232;10.110;2023-07-31T00:21:25;2.55;;;1.83;;
79438;SDS011;68889;48.232;10.110;2023-07-31T00:23:50;4.38;;;2.20;;
79438;SDS011;68889;48.232;10.110;2023-07-31T00:26:16;3.55;;;2.38;;
79438;SDS011;68889;48.232;10.110;2023-07-31T00:28:41;4.70;;;2.20;;
79438;SDS011;68889;48.232;10.110;2023-07-31T00:31:07;3.67;;;2.00;;
79438;SDS011;68889;48.232;10.110;2023-07-31T00:33:34;4.05;;;1.95;;
79438;SDS011;68889;48.232;10.110;2023-07-31T00:36:01;5.35;;;2.60;;
79438;SDS011;68889;48.232;10.110;2023-07-31T00:38:27;4.20;;;2.40;;
79438;SDS011;68889;48.232;10.110;2023-07-31T00:40:52;4.15;;;2.58;;
79438;SDS011;68889;48.232;10.110;2023-07-31T00:43:18;3.45;;;2.33;;
79438;SDS011;68889;48.232;10.110;2023-07-31T00:45:43;5.57;;;2.83;;
79438;SDS011;68889;48.232;10.110;2023-07-31T00:48:09;3.92;;;2.60;;
79438;SDS011;68889;48.232;10.110;2023-07-31T00:50:35;4.47;;;2.53;;
79438;SDS011;68889;48.232;10.110;2023-07-31T00:53:01;6.10;;;2.53;;
79438;SDS011;68889;48.232;10.110;2023-07-31T00:55:26;3.85;;;2.53;;
79438;SDS011;68889;48.232;10.110;2023-07-31T00:57:52;3.45;;;2.45;;
79438;SDS011;68889;48.232;10.110;2023-07-31T01:00:20;5.25;;;2.42;;
79438;SDS011;68889;48.232;10.110;2023-07-31T01:02:46;3.83;;;3.08;;
79438;SDS011;68889;48.232;10.110;2023-07-31T01:05:13;4.50;;;2.90;;
79438;SDS011;68889;48.232;10.110;2023-07-31T01:07:47;3.75;;;2.75;;
79438;SDS011;68889;48.232;10.110;2023-07-31T01:10:23;3.30;;;2.50;;
79438;SDS011;68889;48.232;10.110;2023-07-31T01:12:51;4.65;;;2.50;;
79438;SDS011;68889;48.232;10.110;2023-07-31T01:15:18;4.20;;;2.50;;
79438;SDS011;68889;48.232;10.110;2023-07-31T01:17:44;4.75;;;2.60;;
79438;SDS011;68889;48.232;10.110;2023-07-31T01:20:11;4.18;;;2.45;;
79438;SDS011;68889;48.232;10.110;2023-07-31T01:28:43;3.17;;;1.98;;
79438;SDS011;68889;48.232;10.110;2023-07-31T01:31:26;4.53;;;2.35;;
79438;SDS011;68889;48.232;10.110;2023-07-31T01:33:56;4.25;;;2.30;;
79438;SDS011;68889;48.232;10.110;2023-07-31T01:36:25;4.38;;;2.45;;
79438;SDS011;68889;48.232;10.110;2023-07-31T01:38:51;3.55;;;2.22;;
79438;SDS011;68889;48.232;10.110;2023-07-31T01:41:17;4.10;;;2.85;;
79438;SDS011;68889;48.232;10.110;2023-07-31T01:43:43;5.15;;;2.72;;
79438;SDS011;68889;48.232;10.110;2023-07-31T01:48:35;4.18;;;2.83;;
79438;SDS011;68889;48.232;10.110;2023-07-31T01:51:02;3.25;;;2.10;;
79438;SDS011;68889;48.232;10.110;2023-07-31T01:55:54;3.72;;;2.42;;
79438;SDS011;68889;48.232;10.110;2023-07-31T01:58:19;4.60;;;2.70;;
79438;SDS011;68889;48.232;10.110;2023-07-31T02:00:45;5.90;;;3.10;;
79438;SDS011;68889;48.232;10.110;2023-07-31T02:03:11;5.13;;;3.15;;
79438;SDS011;68889;48.232;10.110;2023-07-31T02:05:43;4.25;;;2.20;;
79438;SDS011;68889;48.232;10.110;2023-07-31T02:08:12;5.20;;;2.95;;
79438;SDS011;68889;48.232;10.110;2023-07-31T02:10:38;5.60;;;3.00;;
79438;SDS011;68889;48.232;10.110;2023-07-31T02:13:04;2.95;;;2.05;;
79438;SDS011;68889;48.232;10.110;2023-07-31T02:15:30;5.43;;;2.28;;
79438;SDS011;68889;48.232;10.110;2023-07-31T02:17:55;4.40;;;2.58;;
79438;SDS011;68889;48.232;10.110;2023-07-31T02:20:21;4.15;;;2.53;;
79438;SDS011;68889;48.232;10.110;2023-07-31T02:22:47;5.35;;;3.38;;
79438;SDS011;68889;48.232;10.110;2023-07-31T02:25:12;5.95;;;2.88;;
79438;SDS011;68889;48.232;10.110;2023-07-31T02:27:38;5.38;;;2.97;;
79438;SDS011;68889;48.232;10.110;2023-07-31T02:30:03;5.32;;;2.50;;
79438;SDS011;68889;48.232;10.110;2023-07-31T02:32:29;4.78;;;2.72;;
79438;SDS011;68889;48.232;10.110;2023-07-31T02:34:55;4.03;;;2.40;;
79438;SDS011;68889;48.232;10.110;2023-07-31T02:37:20;3.05;;;2.22;;
79438;SDS011;68889;48.232;10.110;2023-07-31T02:39:46;3.15;;;2.05;;
79438;SDS011;68889;48.232;10.110;2023-07-31T02:42:12;2.40;;;1.75;;
79438;SDS011;68889;48.232;10.110;2023-07-31T02:44:38;2.58;;;1.73;;
79438;SDS011;68889;48.232;10.110;2023-07-31T02:47:03;2.58;;;1.67;;
79438;SDS011;68889;48.232;10.110;2023-07-31T02:49:29;2.30;;;1.80;;
79438;SDS011;68889;48.232;10.110;2023-07-31T02:51:54;3.47;;;2.00;;
79438;SDS011;68889;48.232;10.110;2023-07-31T02:54:20;3.35;;;1.83;;
79438;SDS011;68889;48.232;10.110;2023-07-31T02:56:46;4.07;;;2.13;;
79438;SDS011;68889;48.232;10.110;2023-07-31T02:59:12;3.80;;;2.53;;
79438;SDS011;68889;48.232;10.110;2023-07-31T03:01:38;4.10;;;2.70;;
79438;SDS011;68889;48.232;10.110;2023-07-31T03:04:04;3.67;;;2.55;;
79438;SDS011;68889;48.232;10.110;2023-07-31T03:06:30;5.90;;;2.88;;
79438;SDS011;68889;48.232;10.110;2023-07-31T03:08:55;3.55;;;3.13;;
79438;SDS011;68889;48.232;10.110;2023-07-31T03:11:21;5.13;;;3.05;;
79438;SDS011;68889;48.232;10.110;2023-07-31T03:13:46;4.80;;;3.08;;
79438;SDS011;68889;48.232;10.110;2023-07-31T03:16:12;5.15;;;3.35;;
79438;SDS011;68889;48.232;10.110;2023-07-31T03:18:38;3.25;;;2.55;;
79438;SDS011;68889;48.232;10.110;2023-07-31T03:21:04;4.97;;;2.70;;
79438;SDS011;68889;48.232;10.110;2023-07-31T03:23:29;5.55;;;3.45;;
79438;SDS011;68889;48.232;10.110;2023-07-31T03:25:59;5.55;;;2.90;;
79438;SDS011;68889;48.232;10.110;2023-07-31T03:28:29;3.90;;;2.80;;
79438;SDS011;68889;48.232;10.110;2023-07-31T03:30:54;4.32;;;2.90;;
79438;SDS011;68889;48.232;10.110;2023-07-31T03:33:20;4.68;;;2.75;;
79438;SDS011;68889;48.232;10.110;2023-07-31T03:35:45;5.00;;;3.38;;
79438;SDS011;68889;48.232;10.110;2023-07-31T03:38:11;3.35;;;2.53;;
79438;SDS011;68889;48.232;10.110;2023-07-31T03:40:37;3.78;;;3.15;;
79438;SDS011;68889;48.232;10.110;2023-07-31T03:43:02;4.18;;;2.80;;
79438;SDS011;68889;48.232;10.110;2023-07-31T03:45:28;3.67;;;2.60;;
79438;SDS011;68889;48.232;10.110;2023-07-31T03:47:54;5.55;;;2.70;;
79438;SDS011;68889;48.232;10.110;2023-07-31T03:50:19;5.63;;;3.38;;
79438;SDS011;68889;48.232;10.110;2023-07-31T03:52:45;5.25;;;3.67;;
79438;SDS011;68889;48.232;10.110;2023-07-31T03:55:11;4.63;;;3.28;;
79438;SDS011;68889;48.232;10.110;2023-07-31T03:57:37;4.93;;;2.78;;
79438;SDS011;68889;48.232;10.110;2023-07-31T04:00:02;6.18;;;3.25;;
79438;SDS011;68889;48.232;10.110;2023-07-31T04:02:28;3.60;;;2.80;;
79438;SDS011;68889;48.232;10.110;2023-07-31T04:04:54;4.53;;;3.17;;
79438;SDS011;68889;48.232;10.110;2023-07-31T04:07:19;5.65;;;3.30;;
79438;SDS011;68889;48.232;10.110;2023-07-31T04:09:45;4.82;;;2.75;;
79438;SDS011;68889;48.232;10.110;2023-07-31T04:12:11;4.75;;;2.53;;
79438;SDS011;68889;48.232;10.110;2023-07-31T04:14:36;4.57;;;3.03;;
79438;SDS011;68889;48.232;10.110;2023-07-31T04:17:02;4.03;;;2.80;;
79438;SDS011;68889;48.232;10.110;2023-07-31T04:19:28;3.97;;;2.65;;
79438;SDS011;68889;48.232;10.110;2023-07-31T04:21:53;6.18;;;3.25;;
79438;SDS011;68889;48.232;10.110;2023-07-31T04:24:19;4.40;;;3.10;;
79438;SDS011;68889;48.232;10.110;2023-07-31T04:26:52;5.35;;;3.30;;
79438;SDS011;68889;48.232;10.110;2023-07-31T04:29:18;3.38;;;2.50;;
79438;SDS011;68889;48.232;10.110;2023-07-31T04:31:44;4.43;;;3.00;;
79438;SDS011;68889;48.232;10.110;2023-07-31T04:34:10;4.45;;;3.08;;
79438;SDS011;68889;48.232;10.110;2023-07-31T04:36:39;3.78;;;2.90;;
79438;SDS011;68889;48.232;10.110;2023-07-31T04:39:04;4.07;;;3.30;;
79438;SDS011;68889;48.232;10.110;2023-07-31T04:41:30;4.22;;;3.13;;
79438;SDS011;68889;48.232;10.110;2023-07-31T04:43:56;5.07;;;3.00;;
79438;SDS011;68889;48.232;10.110;2023-07-31T04:46:21;4.78;;;2.83;;
79438;SDS011;68889;48.232;10.110;2023-07-31T04:48:50;4.15;;;2.92;;
79438;SDS011;68889;48.232;10.110;2023-07-31T04:51:20;4.00;;;2.85;;
79438;SDS011;68889;48.232;10.110;2023-07-31T04:53:48;6.22;;;2.97;;
79438;SDS011;68889;48.232;10.110;2023-07-31T04:56:14;4.10;;;2.70;;
79438;SDS011;68889;48.232;10.110;2023-07-31T04:58:59;4.95;;;3.10;;
79438;SDS011;68889;48.232;10.110;2023-07-31T05:01:25;4.47;;;3.10;;
79438;SDS011;68889;48.232;10.110;2023-07-31T05:03:50;5.05;;;2.90;;
79438;SDS011;68889;48.232;10.110;2023-07-31T05:06:16;4.85;;;2.70;;
79438;SDS011;68889;48.232;10.110;2023-07-31T05:08:42;3.88;;;2.38;;
79438;SDS011;68889;48.232;10.110;2023-07-31T05:11:07;5.18;;;2.55;;
79438;SDS011;68889;48.232;10.110;2023-07-31T05:13:37;5.13;;;2.63;;
79438;SDS011;68889;48.232;10.110;2023-07-31T05:16:02;3.65;;;2.45;;
79438;SDS011;68889;48.232;10.110;2023-07-31T05:18:28;3.38;;;2.35;;
79438;SDS011;68889;48.232;10.110;2023-07-31T05:20:53;4.88;;;2.55;;
79438;SDS011;68889;48.232;10.110;2023-07-31T05:23:19;4.05;;;3.00;;
79438;SDS011;68889;48.232;10.110;2023-07-31T05:25:44;4.03;;;2.30;;
79438;SDS011;68889;48.232;10.110;2023-07-31T05:28:12;4.40;;;2.30;;
79438;SDS011;68889;48.232;10.110;2023-07-31T05:30:40;5.97;;;2.88;;
79438;SDS011;68889;48.232;10.110;2023-07-31T05:33:09;4.13;;;2.58;;
79438;SDS011;68889;48.232;10.110;2023-07-31T05:35:34;4.65;;;2.17;;
79438;SDS011;68889;48.232;10.110;2023-07-31T05:38:00;4.43;;;2.50;;
79438;SDS011;68889;48.232;10.110;2023-07-31T05:40:26;4.43;;;2.67;;
79438;SDS011;68889;48.232;10.110;2023-07-31T05:53:02;3.65;;;1.85;;
79438;SDS011;68889;48.232;10.110;2023-07-31T05:55:27;4.82;;;2.40;;
79438;SDS011;68889;48.232;10.110;2023-07-31T05:57:53;4.13;;;2.50;;
79438;SDS011;68889;48.232;10.110;2023-07-31T06:00:19;5.20;;;2.85;;
79438;SDS011;68889;48.232;10.110;2023-07-31T06:02:45;5.13;;;2.40;;
79438;SDS011;68889;48.232;10.110;2023-07-31T06:05:12;4.28;;;2.70;;
79438;SDS011;68889;48.232;10.110;2023-07-31T06:07:38;6.20;;;2.30;;
79438;SDS011;68889;48.232;10.110;2023-07-31T06:10:03;3.35;;;2.10;;
79438;SDS011;68889;48.232;10.110;2023-07-31T06:12:33;4.35;;;2.30;;
79438;SDS011;68889;48.232;10.110;2023-07-31T06:14:59;4.63;;;2.38;;
79438;SDS011;68889;48.232;10.110;2023-07-31T06:17:25;5.07;;;2.22;;
79438;SDS011;68889;48.232;10.110;2023-07-31T06:27:36;3.65;;;1.58;;
79438;SDS011;68889;48.232;10.110;2023-07-31T06:30:02;4.18;;;2.00;;
79438;SDS011;68889;48.232;10.110;2023-07-31T06:32:27;3.75;;;2.00;;
79438;SDS011;68889;48.232;10.110;2023-07-31T06:34:53;3.05;;;1.75;;
79438;SDS011;68889;48.232;10.110;2023-07-31T06:37:19;5.30;;;1.80;;
79438;SDS011;68889;48.232;10.110;2023-07-31T06:39:44;3.42;;;1.73;;
79438;SDS011;68889;48.232;10.110;2023-07-31T06:42:12;4.00;;;1.90;;
79438;SDS011;68889;48.232;10.110;2023-07-31T06:44:38;3.00;;;1.70;;
79438;SDS011;68889;48.232;10.110;2023-07-31T06:47:03;3.33;;;2.10;;
79438;SDS011;68889;48.232;10.110;2023-07-31T06:51:55;3.10;;;1.67;;
79438;SDS011;68889;48.232;10.110;2023-07-31T06:54:20;3.17;;;2.20;;
79438;SDS011;68889;48.232;10.110;2023-07-31T06:56:47;2.58;;;1.65;;
79438;SDS011;68889;48.232;10.110;2023-07-31T06:59:12;3.83;;;1.85;;
79438;SDS011;68889;48.232;10.110;2023-07-31T07:01:38;4.90;;;1.98;;
79438;SDS011;68889;48.232;10.110;2023-07-31T07:04:04;3.00;;;1.90;;
79438;SDS011;68889;48.232;10.110;2023-07-31T07:08:55;4.25;;;1.73;;
79438;SDS011;68889;48.232;10.110;2023-07-31T07:11:20;3.30;;;1.92;;
79438;SDS011;68889;48.232;10.110;2023-07-31T07:13:49;2.65;;;1.50;;
79438;SDS011;68889;48.232;10.110;2023-07-31T07:16:15;2.75;;;1.75;;
79438;SDS011;68889;48.232;10.110;2023-07-31T07:21:09;4.53;;;1.60;;
79438;SDS011;68889;48.232;10.110;2023-07-31T07:23:37;3.88;;;1.75;;
79438;SDS011;68889;48.232;10.110;2023-07-31T07:26:02;5.75;;;2.10;;
79438;SDS011;68889;48.232;10.110;2023-07-31T07:28:28;4.82;;;2.28;;
79438;SDS011;68889;48.232;10.110;2023-07-31T07:30:55;5.82;;;1.90;;
79438;SDS011;68889;48.232;10.110;2023-07-31T07:46:05;2.97;;;1.80;;
79438;SDS011;68889;48.232;10.110;2023-07-31T07:50:56;3.42;;;1.85;;
79438;SDS011;68889;48.232;10.110;2023-07-31T07:55:47;2.15;;;1.42;;
79438;SDS011;68889;48.232;10.110;2023-07-31T08:00:38;5.25;;;2.00;;
79438;SDS011;68889;48.232;10.110;2023-07-31T08:05:35;4.82;;;1.30;;
79438;SDS011;68889;48.232;10.110;2023-07-31T08:10:29;2.45;;;1.60;;
79438;SDS011;68889;48.232;10.110;2023-07-31T08:15:20;4.10;;;2.00;;
79438;SDS011;68889;48.232;10.110;2023-07-31T08:20:11;3.78;;;1.60;;
79438;SDS011;68889;48.232;10.110;2023-07-31T08:25:06;3.40;;;1.20;;
79438;SDS011;68889;48.232;10.110;2023-07-31T08:27:31;2.47;;;1.33;;
79438;SDS011;68889;48.232;10.110;2023-07-31T08:32:23;4.60;;;1.70;;
79438;SDS011;68889;48.232;10.110;2023-07-31T08:37:14;4.35;;;2.00;;
79438;SDS011;68889;48.232;10.110;2023-07-31T08:42:07;2.78;;;1.50;;
79438;SDS011;68889;48.232;10.110;2023-07-31T08:45:03;4.65;;;1.38;;
79438;SDS011;68889;48.232;10.110;2023-07-31T08:47:29;4.07;;;1.70;;
79438;SDS011;68889;48.232;10.110;2023-07-31T08:49:56;4.78;;;1.70;;
79438;SDS011;68889;48.232;10.110;2023-07-31T08:52:26;2.60;;;1.40;;
79438;SDS011;68889;48.232;10.110;2023-07-31T08:54:52;3.50;;;1.60;;
79438;SDS011;68889;48.232;10.110;2023-07-31T08:57:18;2.53;;;1.23;;
79438;SDS011;68889;48.232;10.110;2023-07-31T08:59:45;3.35;;;1.40;;
79438;SDS011;68889;48.232;10.110;2023-07-31T09:02:11;3.47;;;1.73;;
79438;SDS011;68889;48.232;10.110;2023-07-31T09:04:41;4.80;;;1.35;;
79438;SDS011;68889;48.232;10.110;2023-07-31T09:07:06;3.25;;;1.38;;
79438;SDS011;68889;48.232;10.110;2023-07-31T09:09:34;6.28;;;1.48;;
79438;SDS011;68889;48.232;10.110;2023-07-31T09:11:59;2.30;;;1.30;;
79438;SDS011;68889;48.232;10.110;2023-07-31T09:14:27;3.42;;;1.50;;
79438;SDS011;68889;48.232;10.110;2023-07-31T09:17:04;4.50;;;1.33;;
79438;SDS011;68889;48.232;10.110;2023-07-31T09:19:33;2.80;;;1.05;;
79438;SDS011;68889;48.232;10.110;2023-07-31T09:22:02;2.83;;;1.40;;
79438;SDS011;68889;48.232;10.110;2023-07-31T09:24:36;2.53;;;1.30;;
79438;SDS011;68889;48.232;10.110;2023-07-31T09:27:02;3.28;;;1.50;;
79438;SDS011;68889;48.232;10.110;2023-07-31T09:31:54;3.28;;;1.30;;
79438;SDS011;68889;48.232;10.110;2023-07-31T09:34:38;3.78;;;1.38;;
79438;SDS011;68889;48.232;10.110;2023-07-31T09:37:05;3.67;;;1.30;;
79438;SDS011;68889;48.232;10.110;2023-07-31T09:41:56;2.63;;;1.30;;
79438;SDS011;68889;48.232;10.110;2023-07-31T09:44:36;3.63;;;1.30;;
79438;SDS011;68889;48.232;10.110;2023-07-31T09:47:06;3.22;;;1.30;;
79438;SDS011;68889;48.232;10.110;2023-07-31T09:49:50;5.88;;;1.67;;
79438;SDS011;68889;48.232;10.110;2023-07-31T09:52:18;3.40;;;1.42;;
79438;SDS011;68889;48.232;10.110;2023-07-31T09:54:43;4.00;;;1.73;;
79438;SDS011;68889;48.232;10.110;2023-07-31T09:57:10;3.10;;;1.55;;
79438;SDS011;68889;48.232;10.110;2023-07-31T09:59:36;2.97;;;1.20;;
79438;SDS011;68889;48.232;10.110;2023-07-31T10:02:02;3.10;;;1.70;;
79438;SDS011;68889;48.232;10.110;2023-07-31T10:04:29;3.03;;;1.33;;
79438;SDS011;68889;48.232;10.110;2023-07-31T10:06:55;3.70;;;1.73;;
79438;SDS011;68889;48.232;10.110;2023-07-31T10:09:21;2.72;;;1.40;;
79438;SDS011;68889;48.232;10.110;2023-07-31T10:11:58;2.50;;;1.40;;
79438;SDS011;68889;48.232;10.110;2023-07-31T10:14:28;3.60;;;1.58;;
79438;SDS011;68889;48.232;10.110;2023-07-31T10:16:55;2.80;;;1.50;;
79438;SDS011;68889;48.232;10.110;2023-07-31T10:19:22;2.78;;;1.58;;
79438;SDS011;68889;48.232;10.110;2023-07-31T10:21:48;2.28;;;1.38;;
79438;SDS011;68889;48.232;10.110;2023-07-31T10:24:14;3.22;;;1.45;;
79438;SDS011;68889;48.232;10.110;2023-07-31T10:26:46;2.65;;;1.30;;
79438;SDS011;68889;48.232;10.110;2023-07-31T10:31:45;2.72;;;1.10;;
79438;SDS011;68889;48.232;10.110;2023-07-31T10:34:12;4.22;;;1.27;;
79438;SDS011;68889;48.232;10.110;2023-07-31T10:36:39;2.88;;;1.35;;
79438;SDS011;68889;48.232;10.110;2023-07-31T10:39:04;2.85;;;1.38;;
79438;SDS011;68889;48.232;10.110;2023-07-31T10:42:11;4.65;;;1.45;;
79438;SDS011;68889;48.232;10.110;2023-07-31T10:44:38;2.47;;;1.40;;
79438;SDS011;68889;48.232;10.110;2023-07-31T10:47:08;3.75;;;1.33;;
79438;SDS011;68889;48.232;10.110;2023-07-31T10:49:33;2.45;;;1.17;;
79438;SDS011;68889;48.232;10.110;2023-07-31T10:51:59;3.88;;;1.65;;
79438;SDS011;68889;48.232;10.110;2023-07-31T10:54:35;3.65;;;1.48;;
79438;SDS011;68889;48.232;10.110;2023-07-31T10:57:01;3.45;;;1.52;;
79438;SDS011;68889;48.232;10.110;2023-07-31T10:59:27;3.08;;;1.50;;
79438;SDS011;68889;48.232;10.110;2023-07-31T11:01:56;3.50;;;1.27;;
79438;SDS011;68889;48.232;10.110;2023-07-31T11:04:27;3.90;;;1.40;;
79438;SDS011;68889;48.232;10.110;2023-07-31T11:06:59;2.47;;;1.20;;
79438;SDS011;68889;48.232;10.110;2023-07-31T11:09:28;3.28;;;1.77;;
79438;SDS011;68889;48.232;10.110;2023-07-31T11:11:58;2.78;;;1.42;;
79438;SDS011;68889;48.232;10.110;2023-07-31T11:19:32;3.42;;;1.33;;
79438;SDS011;68889;48.232;10.110;2023-07-31T11:21:58;3.97;;;1.58;;
79438;SDS011;68889;48.232;10.110;2023-07-31T11:24:24;3.40;;;1.50;;
79438;SDS011;68889;48.232;10.110;2023-07-31T11:26:53;5.68;;;1.33;;
79438;SDS011;68889;48.232;10.110;2023-07-31T11:29:19;4.60;;;1.23;;
79438;SDS011;68889;48.232;10.110;2023-07-31T11:31:45;3.70;;;1.30;;
79438;SDS011;68889;48.232;10.110;2023-07-31T11:34:11;3.08;;;1.55;;
79438;SDS011;68889;48.232;10.110;2023-07-31T11:36:37;4.72;;;1.45;;
79438;SDS011;68889;48.232;10.110;2023-07-31T11:39:07;4.43;;;1.40;;
79438;SDS011;68889;48.232;10.110;2023-07-31T11:41:34;4.97;;;1.48;;
79438;SDS011;68889;48.232;10.110;2023-07-31T11:44:00;2.72;;;1.40;;
79438;SDS011;68889;48.232;10.110;2023-07-31T11:46:26;3.50;;;1.48;;
79438;SDS011;68889;48.232;10.110;2023-07-31T11:48:52;4.57;;;1.67;;
79438;SDS011;68889;48.232;10.110;2023-07-31T11:51:23;4.55;;;1.77;;
79438;SDS011;68889;48.232;10.110;2023-07-31T11:53:50;3.05;;;1.48;;
79438;SDS011;68889;48.232;10.110;2023-07-31T11:56:19;4.30;;;1.63;;
79438;SDS011;68889;48.232;10.110;2023-07-31T11:58:46;5.07;;;1.50;;
79438;SDS011;68889;48.232;10.110;2023-07-31T12:01:16;3.67;;;1.38;;
79438;SDS011;68889;48.232;10.110;2023-07-31T12:03:46;3.80;;;1.73;;
79438;SDS011;68889;48.232;10.110;2023-07-31T12:06:13;2.95;;;1.40;;
79438;SDS011;68889;48.232;10.110;2023-07-31T12:08:38;3.25;;;1.48;;
79438;SDS011;68889;48.232;10.110;2023-07-31T12:11:04;3.45;;;1.63;;
79438;SDS011;68889;48.232;10.110;2023-07-31T12:13:31;5.07;;;1.70;;
79438;SDS011;68889;48.232;10.110;2023-07-31T12:15:59;2.75;;;1.40;;
79438;SDS011;68889;48.232;10.110;2023-07-31T12:18:27;4.13;;;1.48;;
79438;SDS011;68889;48.232;10.110;2023-07-31T12:20:55;2.60;;;1.20;;
79438;SDS011;68889;48.232;10.110;2023-07-31T12:23:25;3.15;;;1.27;;
79438;SDS011;68889;48.232;10.110;2023-07-31T12:28:34;4.05;;;1.80;;
79438;SDS011;68889;48.232;10.110;2023-07-31T12:31:01;3.83;;;1.70;;
79438;SDS011;68889;48.232;10.110;2023-07-31T12:33:34;4.10;;;1.80;;
79438;SDS011;68889;48.232;10.110;2023-07-31T12:36:01;4.35;;;1.77;;
79438;SDS011;68889;48.232;10.110;2023-07-31T12:38:29;6.93;;;3.80;;
79438;SDS011;68889;48.232;10.110;2023-07-31T12:40:55;3.95;;;1.80;;
79438;SDS011;68889;48.232;10.110;2023-07-31T12:43:20;3.92;;;1.67;;
79438;SDS011;68889;48.232;10.110;2023-07-31T12:45:46;2.47;;;1.42;;
79438;SDS011;68889;48.232;10.110;2023-07-31T12:48:12;4.25;;;1.48;;
79438;SDS011;68889;48.232;10.110;2023-07-31T12:50:38;3.40;;;1.60;;
79438;SDS011;68889;48.232;10.110;2023-07-31T12:53:04;4.60;;;1.60;;
79438;SDS011;68889;48.232;10.110;2023-07-31T12:55:30;3.55;;;1.60;;
79438;SDS011;68889;48.232;10.110;2023-07-31T12:57:55;4.68;;;1.70;;
79438;SDS011;68889;48.232;10.110;2023-07-31T13:00:24;4.50;;;1.38;;
79438;SDS011;68889;48.232;10.110;2023-07-31T13:02:52;3.13;;;1.45;;
79438;SDS011;68889;48.232;10.110;2023-07-31T13:05:18;4.15;;;1.60;;
79438;SDS011;68889;48.232;10.110;2023-07-31T13:07:53;2.90;;;1.58;;
79438;SDS011;68889;48.232;10.110;2023-07-31T13:10:19;3.05;;;1.42;;
79438;SDS011;68889;48.232;10.110;2023-07-31T13:12:52;3.70;;;1.58;;
79438;SDS011;68889;48.232;10.110;2023-07-31T13:15:18;2.58;;;1.35;;
79438;SDS011;68889;48.232;10.110;2023-07-31T13:17:43;3.42;;;1.45;;
79438;SDS011;68889;48.232;10.110;2023-07-31T13:20:09;3.42;;;1.73;;
79438;SDS011;68889;48.232;10.110;2023-07-31T13:22:35;3.67;;;1.70;;
79438;SDS011;68889;48.232;10.110;2023-07-31T13:25:00;2.65;;;1.42;;
79438;SDS011;68889;48.232;10.110;2023-07-31T13:27:26;4.13;;;1.67;;
79438;SDS011;68889;48.232;10.110;2023-07-31T13:29:52;3.28;;;1.70;;
79438;SDS011;68889;48.232;10.110;2023-07-31T13:32:18;2.95;;;1.50;;
79438;SDS011;68889;48.232;10.110;2023-07-31T13:34:45;3.15;;;1.60;;
79438;SDS011;68889;48.232;10.110;2023-07-31T13:37:11;3.08;;;1.60;;
79438;SDS011;68889;48.232;10.110;2023-07-31T13:39:36;4.63;;;1.70;;
79438;SDS011;68889;48.232;10.110;2023-07-31T13:42:02;3.53;;;1.73;;
79438;SDS011;68889;48.232;10.110;2023-07-31T13:44:31;3.85;;;1.40;;
79438;SDS011;68889;48.232;10.110;2023-07-31T13:46:57;4.35;;;1.80;;
79438;SDS011;68889;48.232;10.110;2023-07-31T13:49:22;3.03;;;1.67;;
79438;SDS011;68889;48.232;10.110;2023-07-31T13:51:48;3.28;;;1.50;;
79438;SDS011;68889;48.232;10.110;2023-07-31T13:54:13;4.18;;;1.90;;
79438;SDS011;68889;48.232;10.110;2023-07-31T13:56:40;4.32;;;1.60;;
79438;SDS011;68889;48.232;10.110;2023-07-31T13:59:06;4.30;;;2.17;;
79438;SDS011;68889;48.232;10.110;2023-07-31T14:01:32;4.25;;;1.95;;
79438;SDS011;68889;48.232;10.110;2023-07-31T14:03:57;5.25;;;2.38;;
79438;SDS011;68889;48.232;10.110;2023-07-31T14:06:24;5.28;;;2.10;;
79438;SDS011;68889;48.232;10.110;2023-07-31T14:08:50;3.75;;;1.75;;
79438;SDS011;68889;48.232;10.110;2023-07-31T14:11:15;4.07;;;2.08;;
79438;SDS011;68889;48.232;10.110;2023-07-31T14:13:41;2.70;;;1.80;;
79438;SDS011;68889;48.232;10.110;2023-07-31T14:16:06;4.85;;;1.80;;
79438;SDS011;68889;48.232;10.110;2023-07-31T14:18:32;2.88;;;1.50;;
79438;SDS011;68889;48.232;10.110;2023-07-31T14:20:57;4.72;;;2.00;;
79438;SDS011;68889;48.232;10.110;2023-07-31T14:23:23;3.65;;;1.67;;
79438;SDS011;68889;48.232;10.110;2023-07-31T14:25:49;3.17;;;1.73;;
79438;SDS011;68889;48.232;10.110;2023-07-31T14:28:14;5.05;;;2.10;;
79438;SDS011;68889;48.232;10.110;2023-07-31T14:30:40;3.90;;;2.15;;
79438;SDS011;68889;48.232;10.110;2023-07-31T14:33:06;3.90;;;1.85;;
79438;SDS011;68889;48.232;10.110;2023-07-31T14:35:31;4.03;;;2.00;;
79438;SDS011;68889;48.232;10.110;2023-07-31T14:37:57;5.97;;;2.03;;
79438;SDS011;68889;48.232;10.110;2023-07-31T14:40:22;3.60;;;1.80;;
79438;SDS011;68889;48.232;10.110;2023-07-31T14:42:48;4.22;;;1.95;;
79438;SDS011;68889;48.232;10.110;2023-07-31T14:45:13;4.00;;;1.80;;
79438;SDS011;68889;48.232;10.110;2023-07-31T14:47:39;3.85;;;1.85;;
79438;SDS011;68889;48.232;10.110;2023-07-31T14:50:05;3.78;;;2.00;;
79438;SDS011;68889;48.232;10.110;2023-07-31T14:52:31;2.60;;;1.50;;
79438;SDS011;68889;48.232;10.110;2023-07-31T14:54:56;3.25;;;1.70;;
79438;SDS011;68889;48.232;10.110;2023-07-31T14:57:22;3.25;;;1.80;;
79438;SDS011;68889;48.232;10.110;2023-07-31T14:59:47;4.53;;;1.88;;
79438;SDS011;68889;48.232;10.110;2023-07-31T15:02:14;4.20;;;1.77;;
79438;SDS011;68889;48.232;10.110;2023-07-31T15:04:40;3.10;;;1.77;;
79438;SDS011;68889;48.232;10.110;2023-07-31T15:07:06;3.35;;;1.80;;
79438;SDS011;68889;48.232;10.110;2023-07-31T15:09:31;4.28;;;1.80;;
79438;SDS011;68889;48.232;10.110;2023-07-31T15:11:57;3.05;;;1.85;;
79438;SDS011;68889;48.232;10.110;2023-07-31T15:14:23;3.38;;;1.50;;
79438;SDS011;68889;48.232;10.110;2023-07-31T15:16:49;2.72;;;1.98;;
79438;SDS011;68889;48.232;10.110;2023-07-31T15:19:15;3.83;;;1.90;;
79438;SDS011;68889;48.232;10.110;2023-07-31T15:21:40;4.72;;;2.08;;
79438;SDS011;68889;48.232;10.110;2023-07-31T15:24:06;3.33;;;1.90;;
79438;SDS011;68889;48.232;10.110;2023-07-31T15:26:31;4.68;;;2.15;;
79438;SDS011;68889;48.232;10.110;2023-07-31T15:29:01;4.47;;;1.92;;
79438;SDS011;68889;48.232;10.110;2023-07-31T15:31:30;4.10;;;2.20;;
79438;SDS011;68889;48.232;10.110;2023-07-31T15:33:56;3.78;;;1.83;;
79438;SDS011;68889;48.232;10.110;2023-07-31T15:36:22;4.32;;;1.75;;
79438;SDS011;68889;48.232;10.110;2023-07-31T15:38:47;2.78;;;1.60;;
79438;SDS011;68889;48.232;10.110;2023-07-31T15:41:16;2.67;;;1.73;;
79438;SDS011;68889;48.232;10.110;2023-07-31T15:43:42;4.10;;;2.20;;
79438;SDS011;68889;48.232;10.110;2023-07-31T15:46:07;3.78;;;1.80;;
79438;SDS011;68889;48.232;10.110;2023-07-31T15:48:33;5.22;;;1.83;;
79438;SDS011;68889;48.232;10.110;2023-07-31T15:50:59;4.53;;;1.70;;
79438;SDS011;68889;48.232;10.110;2023-07-31T15:53:26;5.95;;;1.90;;
79438;SDS011;68889;48.232;10.110;2023-07-31T15:55:51;3.17;;;1.90;;
79438;SDS011;68889;48.232;10.110;2023-07-31T15:58:17;5.10;;;2.25;;
79438;SDS011;68889;48.232;10.110;2023-07-31T16:00:42;4.13;;;2.20;;
79438;SDS011;68889;48.232;10.110;2023-07-31T16:03:08;3.80;;;1.95;;